createdAt,value
2023-03-22T00:02:23.182Z,11.30
2023-03-22T00:04:50.041Z,11.30
2023-03-22T00:07:16.781Z,11.30
2023-03-22T00:09:43.584Z,11.30
2023-03-22T00:12:10.352Z,11.30
2023-03-22T00:14:37.233Z,11.40
2023-03-22T00:17:03.986Z,11.40
2023-03-22T00:19:33.991Z,11.40
2023-03-22T00:22:01.217Z,11.40
2023-03-22T00:24:27.953Z,11.40
2023-03-22T00:26:54.726Z,11.40
2023-03-22T00:29:22.885Z,11.40
2023-03-22T00:31:50.306Z,11.40
2023-03-22T00:34:17.017Z,11.40
2023-03-22T00:36:43.693Z,11.40
2023-03-22T00:39:11.485Z,11.40
2023-03-22T00:41:38.221Z,11.40
2023-03-22T00:44:05.214Z,11.40
2023-03-22T00:46:31.996Z,11.40
2023-03-22T00:48:58.827Z,11.40
2023-03-22T00:51:25.648Z,11.40
2023-03-22T00:53:54.031Z,11.40
2023-03-22T00:56:22.919Z,11.40
2023-03-22T00:58:49.696Z,11.40
2023-03-22T01:01:16.717Z,11.40
2023-03-22T01:03:43.786Z,11.40
2023-03-22T01:06:11.091Z,11.40
2023-03-22T01:08:39.313Z,11.40
2023-03-22T01:11:07.440Z,11.40
2023-03-22T01:13:34.751Z,11.30
2023-03-22T01:16:01.478Z,11.30
2023-03-22T01:18:28.181Z,11.40
2023-03-22T01:20:54.999Z,11.40
2023-03-22T01:23:21.835Z,11.40
2023-03-22T01:25:48.579Z,11.40
2023-03-22T01:28:15.444Z,11.40
2023-03-22T01:30:42.615Z,11.40
2023-03-22T01:33:10.798Z,11.30
2023-03-22T01:35:37.584Z,11.30
2023-03-22T01:38:04.329Z,11.40
2023-03-22T01:40:31.101Z,11.40
2023-03-22T01:42:58.037Z,11.30
2023-03-22T01:45:39.127Z,11.30
2023-03-22T01:48:16.528Z,11.30
2023-03-22T01:50:46.429Z,11.30
2023-03-22T01:53:13.724Z,11.30
2023-03-22T01:55:40.989Z,11.30
2023-03-22T01:58:07.792Z,11.30
2023-03-22T02:00:34.471Z,11.30
2023-03-22T02:03:01.257Z,11.30
2023-03-22T02:05:27.994Z,11.30
2023-03-22T02:07:54.725Z,11.30
2023-03-22T02:10:27.314Z,11.30
2023-03-22T02:13:07.113Z,11.30
2023-03-22T02:15:38.746Z,11.30
2023-03-22T02:18:19.340Z,11.30
2023-03-22T02:20:46.390Z,11.30
2023-03-22T02:23:33.153Z,11.30
2023-03-22T02:26:18.756Z,11.30
2023-03-22T02:29:08.313Z,11.40
2023-03-22T02:32:33.646Z,11.40
2023-03-22T02:35:03.381Z,11.30
2023-03-22T02:37:41.212Z,11.20
2023-03-22T02:40:11.393Z,11.10
2023-03-22T02:42:43.692Z,11.10
2023-03-22T02:45:14.571Z,11.00
2023-03-22T02:48:13.306Z,11.00
2023-03-22T02:50:55.003Z,11.00
2023-03-22T02:53:30.471Z,11.00
2023-03-22T02:56:02.758Z,11.00
2023-03-22T02:58:36.171Z,11.00
2023-03-22T03:01:09.454Z,11.00
2023-03-22T03:03:37.670Z,11.00
2023-03-22T03:06:10.662Z,11.00
2023-03-22T03:08:37.495Z,11.00
2023-03-22T03:11:04.317Z,11.00
2023-03-22T03:13:31.022Z,11.00
2023-03-22T03:15:59.256Z,11.00
2023-03-22T03:18:26.328Z,11.00
2023-03-22T03:21:06.792Z,11.00
2023-03-22T03:23:39.003Z,11.00
2023-03-22T03:26:09.001Z,11.00
2023-03-22T03:28:59.017Z,11.00
2023-03-22T03:31:25.952Z,10.90
2023-03-22T03:34:21.817Z,10.90
2023-03-22T03:36:55.857Z,10.90
2023-03-22T03:39:22.626Z,10.90
2023-03-22T03:41:49.456Z,10.90
2023-03-22T03:44:16.589Z,10.80
2023-03-22T03:46:43.272Z,10.80
2023-03-22T03:49:10.020Z,10.80
2023-03-22T03:51:48.668Z,10.80
2023-03-22T03:54:15.352Z,10.80
2023-03-22T03:56:42.030Z,10.80
2023-03-22T03:59:09.153Z,10.80
2023-03-22T04:01:36.210Z,10.80
2023-03-22T04:04:02.889Z,10.80
2023-03-22T04:06:29.980Z,10.80
2023-03-22T04:08:58.071Z,10.70
2023-03-22T04:11:24.842Z,10.70
2023-03-22T04:13:51.555Z,10.70
2023-03-22T04:16:18.244Z,10.60
2023-03-22T04:18:44.887Z,10.70
2023-03-22T04:21:12.163Z,10.70
2023-03-22T04:23:39.397Z,10.70
2023-03-22T04:26:06.208Z,10.70
2023-03-22T04:28:33.545Z,10.60
2023-03-22T04:31:00.314Z,10.60
2023-03-22T04:33:27.117Z,10.60
2023-03-22T04:35:57.006Z,10.60
2023-03-22T04:38:25.305Z,10.60
2023-03-22T04:40:52.217Z,10.60
2023-03-22T04:43:19.167Z,10.50
2023-03-22T04:45:47.329Z,10.50
2023-03-22T04:48:14.652Z,10.50
2023-03-22T04:50:42.166Z,10.50
2023-03-22T04:53:09.878Z,10.50
2023-03-22T04:55:36.616Z,10.50
2023-03-22T04:58:03.370Z,10.50
2023-03-22T05:00:30.608Z,10.50
2023-03-22T05:02:58.056Z,10.50
2023-03-22T05:05:24.809Z,10.50
2023-03-22T05:07:54.300Z,10.50
2023-03-22T05:10:21.048Z,10.40
2023-03-22T05:12:47.964Z,10.40
2023-03-22T05:15:14.764Z,10.40
2023-03-22T05:17:41.504Z,10.40
2023-03-22T05:20:10.263Z,10.40
2023-03-22T05:22:40.954Z,10.40
2023-03-22T05:25:08.883Z,10.40
2023-03-22T05:27:38.897Z,10.40
2023-03-22T05:30:06.517Z,10.40
2023-03-22T05:32:33.205Z,10.40
2023-03-22T05:35:04.811Z,10.40
2023-03-22T05:37:31.891Z,10.40
2023-03-22T05:39:58.584Z,10.40
2023-03-22T05:42:25.691Z,10.40
2023-03-22T05:44:52.388Z,10.40
2023-03-22T05:47:19.102Z,10.40
2023-03-22T05:49:47.035Z,10.40
2023-03-22T05:52:13.768Z,10.30
2023-03-22T05:54:40.622Z,10.30
2023-03-22T05:57:07.321Z,10.30
2023-03-22T05:59:33.984Z,10.30
2023-03-22T06:02:00.929Z,10.30
2023-03-22T06:04:27.738Z,10.30
2023-03-22T06:06:54.505Z,10.30
2023-03-22T06:09:21.286Z,10.40
2023-03-22T06:11:48.060Z,10.40
2023-03-22T06:14:14.838Z,10.40
2023-03-22T06:16:41.624Z,10.40
2023-03-22T06:19:08.293Z,10.40
2023-03-22T06:21:34.973Z,10.40
2023-03-22T06:24:01.737Z,10.40
2023-03-22T06:26:28.430Z,10.40
2023-03-22T06:28:55.300Z,10.40
2023-03-22T06:31:22.502Z,10.40
2023-03-22T06:33:49.298Z,10.40
2023-03-22T06:36:16.204Z,10.40
2023-03-22T06:38:42.958Z,10.40
2023-03-22T06:41:09.821Z,10.40
2023-03-22T06:43:36.525Z,10.30
2023-03-22T06:46:03.361Z,10.40
2023-03-22T06:48:30.163Z,10.40
2023-03-22T06:50:56.931Z,10.40
2023-03-22T06:53:23.759Z,10.40
2023-03-22T06:55:53.720Z,10.40
2023-03-22T06:58:22.755Z,10.50
2023-03-22T07:00:49.551Z,10.50
2023-03-22T07:03:16.198Z,10.50
2023-03-22T07:05:43.042Z,10.50
2023-03-22T07:08:10.818Z,10.60
2023-03-22T07:10:37.881Z,10.60
2023-03-22T07:13:04.849Z,10.60
2023-03-22T07:15:33.021Z,10.70
2023-03-22T07:18:01.093Z,10.70
2023-03-22T07:20:28.242Z,10.70
2023-03-22T07:22:55.021Z,10.70
2023-03-22T07:25:21.806Z,10.80
2023-03-22T07:27:48.549Z,10.80
2023-03-22T07:30:15.368Z,10.90
2023-03-22T07:32:42.082Z,10.90
2023-03-22T07:35:08.964Z,10.90
2023-03-22T07:37:38.694Z,10.90
2023-03-22T07:40:07.999Z,11.00
2023-03-22T07:42:34.914Z,11.00
2023-03-22T07:45:01.877Z,11.00
2023-03-22T07:47:40.265Z,10.90
2023-03-22T07:50:08.011Z,11.00
2023-03-22T07:52:35.274Z,10.90
2023-03-22T07:55:01.957Z,10.90
2023-03-22T07:57:34.786Z,11.00
2023-03-22T08:00:01.539Z,11.00
2023-03-22T08:02:28.302Z,11.10
2023-03-22T08:04:56.617Z,11.10
2023-03-22T08:07:25.347Z,11.10
2023-03-22T08:09:52.082Z,11.20
2023-03-22T08:12:18.885Z,11.20
2023-03-22T08:14:50.966Z,11.20
2023-03-22T08:17:18.377Z,11.30
2023-03-22T08:19:48.385Z,11.30
2023-03-22T08:22:15.428Z,11.30
2023-03-22T08:24:42.351Z,11.30
2023-03-22T08:27:09.376Z,11.30
2023-03-22T08:29:37.382Z,11.20
2023-03-22T08:32:05.759Z,11.20
2023-03-22T08:34:33.978Z,11.20
2023-03-22T08:37:00.770Z,11.30
2023-03-22T08:39:28.035Z,11.40
2023-03-22T08:41:54.707Z,11.40
2023-03-22T08:44:21.460Z,11.40
2023-03-22T08:46:48.226Z,11.50
2023-03-22T08:49:15.068Z,11.50
2023-03-22T08:51:41.751Z,11.60
2023-03-22T08:54:08.800Z,11.70
2023-03-22T08:56:38.229Z,11.80
2023-03-22T08:59:05.962Z,11.90
2023-03-22T09:01:32.987Z,11.90
2023-03-22T09:04:02.730Z,11.90
2023-03-22T09:06:29.552Z,11.90
2023-03-22T09:08:56.750Z,11.90
2023-03-22T09:11:23.940Z,11.80
2023-03-22T09:13:51.305Z,11.90
2023-03-22T09:16:18.346Z,11.80
2023-03-22T09:18:45.273Z,11.80
2023-03-22T09:21:12.271Z,11.80
2023-03-22T09:23:39.108Z,11.80
2023-03-22T09:26:07.212Z,11.80
2023-03-22T09:28:34.291Z,11.80
2023-03-22T09:31:04.934Z,11.90
2023-03-22T09:33:31.734Z,11.90
2023-03-22T09:35:58.683Z,12.00
2023-03-22T09:38:25.640Z,12.10
2023-03-22T09:41:00.925Z,12.20
2023-03-22T09:43:50.819Z,12.40
2023-03-22T09:46:39.092Z,12.40
2023-03-22T09:49:18.000Z,12.60
2023-03-22T09:51:47.569Z,12.80
2023-03-22T09:54:15.425Z,12.80
2023-03-22T09:56:42.232Z,12.80
2023-03-22T09:59:36.362Z,13.00
2023-03-22T10:02:08.093Z,13.10
2023-03-22T10:05:01.613Z,13.20
2023-03-22T10:07:32.762Z,13.20
2023-03-22T10:10:05.842Z,13.30
2023-03-22T10:13:15.259Z,13.30
2023-03-22T10:15:52.883Z,13.30
2023-03-22T10:18:25.711Z,13.30
2023-03-22T10:21:06.062Z,13.50
2023-03-22T10:23:37.442Z,13.50
2023-03-22T10:26:04.341Z,13.60
2023-03-22T10:28:41.752Z,13.60
2023-03-22T10:31:17.599Z,13.80
2023-03-22T10:33:57.694Z,13.80
2023-03-22T10:36:27.672Z,13.80
2023-03-22T10:39:25.449Z,13.70
2023-03-22T10:41:54.393Z,13.60
2023-03-22T10:44:22.632Z,13.50
2023-03-22T10:46:49.397Z,13.20
2023-03-22T10:49:27.463Z,13.10
2023-03-22T10:51:59.956Z,13.10
2023-03-22T10:54:26.971Z,13.00
2023-03-22T10:56:53.773Z,12.90
2023-03-22T10:59:49.690Z,12.90
2023-03-22T11:02:24.005Z,12.90
2023-03-22T11:05:22.939Z,12.80
2023-03-22T11:07:49.909Z,12.70
2023-03-22T11:10:27.321Z,12.70
2023-03-22T11:13:07.082Z,12.60
2023-03-22T11:15:39.385Z,12.70
2023-03-22T11:18:16.302Z,12.80
2023-03-22T11:20:52.699Z,12.90
2023-03-22T11:23:19.435Z,13.10
2023-03-22T11:25:47.992Z,13.30
2023-03-22T11:28:29.240Z,13.50
2023-03-22T11:31:07.739Z,13.90
2023-03-22T11:33:46.446Z,14.20
2023-03-22T11:36:17.918Z,14.40
2023-03-22T11:38:45.663Z,14.50
2023-03-22T11:41:30.937Z,14.60
2023-03-22T11:44:00.730Z,14.70
2023-03-22T11:46:27.692Z,14.70
2023-03-22T11:49:00.851Z,14.80
2023-03-22T11:51:36.104Z,14.90
2023-03-22T11:54:19.531Z,14.80
2023-03-22T11:56:48.097Z,15.20
2023-03-22T11:59:16.602Z,15.20
2023-03-22T12:02:33.400Z,15.30
2023-03-22T12:05:24.638Z,15.30
2023-03-22T12:08:00.278Z,15.10
2023-03-22T12:10:30.228Z,14.80
2023-03-22T12:13:25.678Z,14.90
2023-03-22T12:15:54.906Z,15.00
2023-03-22T12:18:27.624Z,14.90
2023-03-22T12:20:56.262Z,14.80
2023-03-22T12:23:26.000Z,14.90
2023-03-22T12:26:12.750Z,15.10
2023-03-22T12:28:57.750Z,15.30
2023-03-22T12:31:31.022Z,15.40
2023-03-22T12:34:03.605Z,15.70
2023-03-22T12:36:48.534Z,16.00
2023-03-22T12:39:36.057Z,16.20
2023-03-22T12:42:34.666Z,16.30
2023-03-22T12:45:29.481Z,16.30
2023-03-22T12:48:18.009Z,16.60
2023-03-22T12:51:01.689Z,17.00
2023-03-22T12:53:42.455Z,17.30
2023-03-22T12:56:20.439Z,17.00
2023-03-22T12:58:49.708Z,17.10
2023-03-22T13:01:30.590Z,17.00
2023-03-22T13:04:00.051Z,16.80
2023-03-22T13:06:45.632Z,16.80
2023-03-22T13:09:16.332Z,16.70
2023-03-22T13:11:44.872Z,16.80
2023-03-22T13:14:13.254Z,16.90
2023-03-22T13:16:56.276Z,16.80
2023-03-22T13:19:31.571Z,16.90
2023-03-22T13:22:22.868Z,17.10
2023-03-22T13:24:59.290Z,16.90
2023-03-22T13:28:03.674Z,16.90
2023-03-22T13:30:52.826Z,17.10
2023-03-22T13:33:31.479Z,17.10
2023-03-22T13:36:00.223Z,17.20
2023-03-22T13:38:35.632Z,17.30
2023-03-22T13:41:29.822Z,17.00
2023-03-22T13:43:58.510Z,16.90
2023-03-22T13:46:25.513Z,16.70
2023-03-22T13:48:56.378Z,16.60
2023-03-22T13:51:25.610Z,16.50
2023-03-22T13:53:52.566Z,16.40
2023-03-22T13:56:33.892Z,16.40
2023-03-22T13:59:03.863Z,16.20
2023-03-22T14:02:12.076Z,16.00
2023-03-22T14:04:43.654Z,15.60
2023-03-22T14:07:35.241Z,15.30
2023-03-22T14:10:05.599Z,15.10
2023-03-22T14:12:48.349Z,15.10
2023-03-22T14:15:27.226Z,15.00
2023-03-22T14:18:01.451Z,14.90
2023-03-22T14:20:32.113Z,14.80
